Time;durP1;ratioP1;P1;durP2;ratioP2;P2;SDS_P1;SDS_P2;PMS_P1;PMS_P2;Temp;Humidity;BMP_temperature;BMP_pressure;BME280_temperature;BME280_humidity;BME280_pressure;Samples;Min_cycle;Max_cycle;Signal;HPM_P1;HPM_P2
2022/07/08 00:02:35;;;;;;;3.17;1.30;;;;;;;21.32;48.91;99967.88;6256660;28;20528;-80
2022/07/08 00:05:36;;;;;;;2.90;1.43;;;;;;;21.25;49.28;99958.06;6256819;28;20403;-87
2022/07/08 00:08:39;;;;;;;1.33;1.00;;;;;;;21.16;49.57;99964.38;6257035;28;20037;-88
2022/07/08 00:11:41;;;;;;;1.42;1.20;;;;;;;21.11;49.63;99968.34;6257191;28;20475;-87
2022/07/08 00:14:42;;;;;;;;;;;;;;;21.17;50.01;99966.88;6274628;28;20041;-80
2022/07/08 00:17:43;;;;;;;2.95;1.02;;;;;;;21.08;49.99;99968.66;6256413;28;19959;-80
2022/07/08 00:20:44;;;;;;;4.67;1.43;;;;;;;21.16;50.76;99972.34;6274040;28;20077;-80
2022/07/08 00:23:44;;;;;;;4.90;1.27;;;;;;;21.21;52.62;99975.31;6223393;28;20049;-87
2022/07/08 00:26:45;;;;;;;7.73;1.40;;;;;;;21.20;54.34;99979.78;6256277;28;20041;-87
2022/07/08 00:29:46;;;;;;;2.50;1.50;;;;;;;21.20;54.04;99984.28;6255905;28;20041;-87
2022/07/08 00:32:47;;;;;;;4.87;1.10;;;;;;;21.12;55.41;99974.47;6239385;28;20051;-87
2022/07/08 00:35:48;;;;;;;2.40;1.27;;;;;;;21.02;55.58;99971.16;6273357;28;20037;-87
2022/07/08 00:38:49;;;;;;;1.67;1.50;;;;;;;20.98;53.80;99981.28;6255877;28;20045;-81
2022/07/08 00:41:50;;;;;;;2.10;1.60;;;;;;;20.98;57.00;99983.06;6272173;28;20120;-87
2022/07/08 00:44:51;;;;;;;6.30;1.60;;;;;;;20.86;54.67;99971.97;6255585;28;20037;-87
2022/07/08 00:47:52;;;;;;;10.47;2.13;;;;;;;20.87;57.22;99969.13;6272123;28;20430;-87
2022/07/08 00:50:52;;;;;;;5.32;1.50;;;;;;;20.85;55.36;99970.28;6254883;28;20400;-87
2022/07/08 00:53:57;;;;;;;1.92;1.50;;;;;;;20.78;55.75;99970.13;6256103;28;20045;-80
2022/07/08 00:56:59;;;;;;;5.47;1.30;;;;;;;20.68;54.18;99972.06;6273502;28;20094;-81
2022/07/08 01:00:00;;;;;;;5.13;1.73;;;;;;;20.63;55.81;99966.41;6271905;28;20053;-88
2022/07/08 01:03:04;;;;;;;4.13;1.60;;;;;;;20.62;55.63;99960.28;6255326;28;20475;-81
2022/07/08 01:06:05;;;;;;;5.68;1.30;;;;;;;20.59;57.40;99957.13;6271777;28;20496;-81
2022/07/08 01:09:06;;;;;;;3.25;1.63;;;;;;;20.46;56.67;99949.59;6271629;28;20041;-81
2022/07/08 01:12:08;;;;;;;3.78;1.48;;;;;;;20.46;58.66;99952.25;6255185;28;20045;-81
2022/07/08 01:15:09;;;;;;;;;;;;;;;20.43;57.68;99950.75;6255375;28;20513;-88
2022/07/08 01:18:24;;;;;;;3.83;1.30;;;;;;;20.42;56.48;99945.59;6271481;28;19921;-81
2022/07/08 01:21:25;;;;;;;3.28;1.58;;;;;;;20.41;56.15;99946.63;6271866;28;20040;-87
2022/07/08 01:24:27;;;;;;;6.38;1.42;;;;;;;20.39;58.06;99949.41;6271710;28;20118;-87
2022/07/08 01:27:27;;;;;;;3.00;1.40;;;;;;;20.33;58.56;99942.09;6238539;28;20044;-81
2022/07/08 01:30:28;;;;;;;8.60;1.80;;;;;;;20.33;57.88;99940.28;6254830;28;20044;-82
2022/07/08 01:33:29;;;;;;;3.33;1.60;;;;;;;20.30;56.11;99935.31;6254629;28;20458;-81
2022/07/08 01:36:30;;;;;;;4.70;1.40;;;;;;;20.28;56.83;99942.59;6254493;28;20372;-81
2022/07/08 01:39:31;;;;;;;4.43;1.70;;;;;;;20.21;56.11;99938.06;6238555;28;20144;-81
2022/07/08 01:42:32;;;;;;;3.83;1.50;;;;;;;20.24;57.45;99938.59;6271136;28;20053;-81
2022/07/08 01:45:33;;;;;;;8.50;1.77;;;;;;;20.15;57.58;99941.34;6254623;28;20568;-81
2022/07/08 01:48:37;;;;;;;7.33;1.70;;;;;;;20.12;56.80;99930.09;6255352;28;20124;-81
2022/07/08 01:51:38;;;;;;;2.55;1.60;;;;;;;20.16;60.97;99929.75;6272152;28;20045;-80
2022/07/08 01:54:38;;;;;;;7.57;1.50;;;;;;;20.17;59.10;99928.78;6238071;28;20541;-81
2022/07/08 01:57:39;;;;;;;1.97;1.50;;;;;;;20.17;58.54;99939.38;6270913;28;20120;-87
2022/07/08 02:00:42;;;;;;;4.37;1.73;;;;;;;20.15;60.84;99936.88;6241420;28;20069;-86
2022/07/08 02:03:43;;;;;;;6.03;1.80;;;;;;;20.11;62.18;99939.00;6262809;28;20483;-80
2022/07/08 02:06:44;;;;;;;4.27;1.63;;;;;;;20.10;60.80;99947.13;6262938;28;20056;-87
2022/07/08 02:09:45;;;;;;;3.03;1.70;;;;;;;20.02;58.98;99941.78;6246708;28;20048;-87
2022/07/08 02:12:48;;;;;;;3.13;1.47;;;;;;;20.00;57.39;99939.28;6279150;28;20082;-87
2022/07/08 02:15:49;;;;;;;4.15;1.70;;;;;;;20.01;58.36;99956.84;6279105;28;20049;-87
2022/07/08 02:18:52;;;;;;;6.33;1.70;;;;;;;19.97;58.14;99942.25;6279292;28;20095;-80
2022/07/08 02:21:53;;;;;;;3.30;1.55;;;;;;;19.99;58.16;99950.88;6263302;28;20040;-87
2022/07/08 02:24:56;;;;;;;4.63;1.50;;;;;;;19.92;59.34;99941.91;6262705;28;20041;-86
2022/07/08 02:27:59;;;;;;;5.72;1.98;;;;;;;19.99;59.96;99940.28;6262578;28;20045;-86
2022/07/08 02:31:03;;;;;;;6.53;2.42;;;;;;;19.99;59.54;99945.56;6262105;28;20045;-81
2022/07/08 02:34:04;;;;;;;5.40;2.78;;;;;;;19.93;58.28;99946.19;6262120;28;20115;-87
2022/07/08 02:37:05;;;;;;;7.60;2.60;;;;;;;19.89;58.91;99944.84;6245725;28;20051;-87
2022/07/08 02:40:07;;;;;;;12.17;3.20;;;;;;;19.90;60.55;99951.81;6245608;28;20124;-81
2022/07/08 02:43:10;;;;;;;7.05;2.97;;;;;;;19.87;59.54;99950.31;6246032;28;20040;-86
2022/07/08 02:46:13;;;;;;;6.72;2.63;;;;;;;19.88;61.19;99951.13;6246256;28;20041;-87
2022/07/08 02:49:14;;;;;;;4.63;2.42;;;;;;;19.85;59.81;99938.19;6262446;28;20475;-87
2022/07/08 02:52:18;;;;;;;8.25;2.40;;;;;;;19.84;63.26;99944.50;6278723;28;20471;-81
2022/07/08 02:55:21;;;;;;;7.45;2.67;;;;;;;19.78;59.51;99943.28;6262074;28;20041;-81
2022/07/08 02:58:24;;;;;;;6.32;2.53;;;;;;;19.81;60.12;99956.25;6283519;28;20051;-81
2022/07/08 03:01:25;;;;;;;6.90;2.50;;;;;;;19.79;57.98;99957.34;6287122;28;20101;-87
2022/07/08 03:04:26;;;;;;;6.80;2.33;;;;;;;19.77;57.64;99959.31;6286353;28;20040;-81
2022/07/08 03:07:29;;;;;;;5.87;2.47;;;;;;;19.73;57.50;99962.31;6270113;28;20048;-81
2022/07/08 03:10:30;;;;;;;4.68;2.40;;;;;;;19.75;58.75;99956.84;6253948;28;20047;-85
2022/07/08 03:13:31;;;;;;;11.03;2.37;;;;;;;19.68;58.08;99964.56;6265294;28;20124;-86
2022/07/08 03:16:35;;;;;;;5.33;2.10;;;;;;;19.72;58.61;99957.97;6266082;28;20072;-81
2022/07/08 03:19:36;;;;;;;4.72;2.08;;;;;;;19.75;61.34;99969.25;6266343;28;20048;-86
2022/07/08 03:22:37;;;;;;;4.15;2.13;;;;;;;19.74;59.39;99965.78;6265856;28;20483;-81
2022/07/08 03:25:38;;;;;;;4.27;2.00;;;;;;;19.65;59.58;99966.69;6282367;28;20048;-87
2022/07/08 03:28:39;;;;;;;5.50;2.37;;;;;;;19.59;60.92;99970.75;6248941;28;20040;-86
2022/07/08 03:31:40;;;;;;;4.83;2.20;;;;;;;19.61;59.93;99971.44;6249220;28;20119;-87
2022/07/08 03:34:43;;;;;;;6.40;2.30;;;;;;;19.59;60.79;99976.06;6265341;28;20098;-86
2022/07/08 03:37:48;;;;;;;3.72;2.33;;;;;;;19.59;59.62;99984.00;6266110;28;20044;-86
2022/07/08 03:44:08;;;;;;;7.65;2.17;;;;;;;19.65;58.22;99991.31;6270376;28;20048;-86
2022/07/08 03:47:08;;;;;;;11.90;2.10;;;;;;;19.69;59.50;99990.03;6265272;28;20044;-81
2022/07/08 03:50:15;;;;;;;8.30;2.60;;;;;;;19.72;59.04;99996.84;6249119;28;20040;-81
2022/07/08 03:53:16;;;;;;;8.23;2.20;;;;;;;19.72;61.61;99988.91;6282063;28;20037;-86
2022/07/08 03:56:18;;;;;;;5.43;2.05;;;;;;;19.74;58.67;100000.19;6281043;28;20054;-84
2022/07/08 03:59:19;;;;;;;;;;;;;;;19.74;58.67;99994.88;6299246;28;20048;-86
2022/07/08 04:02:20;;;;;;;6.65;2.38;;;;;;;19.73;58.80;99986.13;6264043;28;19920;-86
2022/07/08 04:05:26;;;;;;;3.63;2.00;;;;;;;19.70;58.63;100006.72;6265073;28;20044;-81
2022/07/08 04:08:27;;;;;;;4.50;1.90;;;;;;;19.74;59.62;99989.59;6281053;28;20044;-82
2022/07/08 04:11:30;;;;;;;11.47;2.43;;;;;;;19.73;59.12;99998.53;6264600;28;20041;-81
2022/07/08 04:14:31;;;;;;;8.75;2.40;;;;;;;19.76;59.54;99995.56;6265240;28;20094;-86
2022/07/08 04:17:33;;;;;;;9.37;2.40;;;;;;;19.78;59.45;100003.34;6269235;28;20045;-85
2022/07/08 04:20:34;;;;;;;5.95;2.30;;;;;;;19.78;59.35;100006.00;6256303;28;20462;-81
2022/07/08 04:23:35;;;;;;;11.80;3.37;;;;;;;19.77;59.06;99994.59;6246871;28;20076;-81
2022/07/08 04:26:36;;;;;;;10.47;3.27;;;;;;;19.63;59.35;100011.81;6260591;28;20049;-80
2022/07/08 04:29:37;;;;;;;12.60;3.85;;;;;;;19.68;59.47;100012.22;6256060;28;20079;-86
2022/07/08 04:32:39;;;;;;;13.98;3.92;;;;;;;19.76;60.09;100002.69;6239827;28;20116;-82
2022/07/08 04:35:40;;;;;;;11.47;4.23;;;;;;;19.81;60.46;100003.03;6239762;28;20104;-81
2022/07/08 04:38:41;;;;;;;11.57;3.77;;;;;;;19.87;59.40;100007.72;6256358;28;20044;-81
2022/07/08 04:41:42;;;;;;;9.82;3.80;;;;;;;19.93;58.66;100020.34;6223354;28;20276;-80
2022/07/08 04:44:43;;;;;;;14.02;3.70;;;;;;;20.00;58.34;100007.31;6240096;28;20063;-81
2022/07/08 04:47:46;;;;;;;9.32;3.50;;;;;;;20.06;58.54;100017.31;6222822;28;20045;-85
2022/07/08 04:50:48;;;;;;;7.07;3.17;;;;;;;20.10;58.07;100016.00;6262954;28;20069;-81
2022/07/08 04:53:49;;;;;;;9.50;3.23;;;;;;;20.23;57.78;100015.56;6263759;28;20045;-85
2022/07/08 04:56:49;;;;;;;8.33;2.70;;;;;;;20.43;60.36;100034.72;6298007;28;20047;-81
2022/07/08 04:59:50;;;;;;;8.87;2.80;;;;;;;20.51;58.49;100032.94;6246936;28;20429;-86
2022/07/08 05:02:55;;;;;;;9.25;3.60;;;;;;;20.70;56.92;100039.84;6263888;28;20051;-86
2022/07/08 05:05:56;;;;;;;5.45;2.33;;;;;;;20.72;57.61;100034.41;6280020;28;20565;-86
2022/07/08 05:09:01;;;;;;;5.10;2.33;;;;;;;20.56;59.65;100036.94;6248813;28;20044;-81
2022/07/08 05:12:04;;;;;;;6.50;2.58;;;;;;;20.62;59.77;100036.34;6264074;28;20040;-86
2022/07/08 05:15:07;;;;;;;3.45;2.13;;;;;;;20.74;57.64;100043.00;6263314;28;20044;-87
2022/07/08 05:18:08;;;;;;;6.05;2.13;;;;;;;20.81;57.50;100038.72;6279947;28;20091;-82
2022/07/08 05:21:08;;;;;;;8.43;2.53;;;;;;;20.91;56.96;100043.91;6263141;28;20501;-81
2022/07/08 05:24:09;;;;;;;4.93;2.17;;;;;;;20.80;57.94;100054.81;6279794;28;20069;-82
2022/07/08 05:27:10;;;;;;;8.30;2.40;;;;;;;20.78;57.02;100054.97;6263011;28;20072;-81
2022/07/08 05:30:14;;;;;;;3.73;2.23;;;;;;;20.81;57.85;100057.28;6263317;28;20041;-81
2022/07/08 05:33:15;;;;;;;8.48;2.22;;;;;;;20.66;59.97;100061.53;6279721;28;20041;-80
2022/07/08 05:36:16;;;;;;;9.97;2.20;;;;;;;20.31;60.45;100055.34;6262085;28;20044;-80
2022/07/08 05:39:17;;;;;;;3.22;2.40;;;;;;;20.13;59.91;100061.53;6279350;28;20036;-86
2022/07/08 05:42:18;;;;;;;4.93;2.40;;;;;;;20.29;60.94;100066.09;6246061;28;20418;-80
2022/07/08 05:45:19;;;;;;;8.18;2.80;;;;;;;20.43;60.12;100069.19;6278772;28;20415;-81
2022/07/08 05:48:21;;;;;;;6.50;2.27;;;;;;;20.44;59.00;100071.66;6262466;28;20063;-86
2022/07/08 05:51:22;;;;;;;5.30;2.50;;;;;;;20.50;58.95;100081.63;6296607;28;20069;-88
2022/07/08 05:54:29;;;;;;;7.70;2.28;;;;;;;20.54;58.69;100077.66;6263157;28;20045;-80
2022/07/08 05:57:30;;;;;;;6.03;2.17;;;;;;;20.65;59.32;100079.28;6279524;28;20043;-87
2022/07/08 06:00:30;;;;;;;4.93;2.03;;;;;;;20.69;59.66;100072.66;6255089;28;20049;-81
2022/07/08 06:03:51;;;;;;;8.23;2.33;;;;;;;20.57;58.74;100079.19;6221136;28;20066;-88
2022/07/08 06:07:07;;;;;;;5.03;2.17;;;;;;;20.67;59.50;100084.38;6230263;28;20065;-85
2022/07/08 06:10:09;;;;;;;3.97;2.17;;;;;;;20.64;58.06;100088.19;6197569;28;20506;-82
2022/07/08 06:13:10;;;;;;;10.15;2.22;;;;;;;20.48;59.22;100088.06;6229107;28;20046;-82
2022/07/08 06:16:11;;;;;;;3.70;2.30;;;;;;;20.54;59.46;100095.41;6213494;28;20081;-82
2022/07/08 06:19:14;;;;;;;4.47;2.20;;;;;;;20.64;60.61;100090.03;6247753;28;20104;-81
2022/07/08 06:22:15;;;;;;;4.25;2.10;;;;;;;21.01;58.33;100088.88;6203603;28;20106;-81
2022/07/08 06:25:16;;;;;;;5.77;2.40;;;;;;;21.18;58.39;100092.38;6222318;28;20430;-81
2022/07/08 06:28:17;;;;;;;6.83;2.50;;;;;;;21.25;58.02;100091.59;6222160;28;20097;-82
2022/07/08 06:31:17;;;;;;;12.30;2.50;;;;;;;21.38;57.70;100096.44;6251510;28;20277;-80
2022/07/08 06:34:18;;;;;;;6.27;2.23;;;;;;;21.33;58.16;100096.06;6262867;28;20045;-80
2022/07/08 06:37:19;;;;;;;15.30;2.47;;;;;;;21.45;58.17;100094.78;6262587;28;20040;-80
2022/07/08 06:40:21;;;;;;;5.70;2.30;;;;;;;21.46;56.98;100099.13;6246649;28;20041;-81
2022/07/08 06:43:22;;;;;;;9.10;1.90;;;;;;;21.59;55.82;100090.69;6262149;28;20090;-88
2022/07/08 06:46:24;;;;;;;2.83;2.13;;;;;;;21.53;56.27;100094.81;6279464;28;20079;-79
2022/07/08 06:49:27;;;;;;;12.00;2.38;;;;;;;21.69;58.71;100093.19;6278129;28;20500;-80
2022/07/08 06:52:30;;;;;;;6.97;2.30;;;;;;;22.04;56.14;100083.22;6250230;28;20053;-80
2022/07/08 06:55:31;;;;;;;7.93;2.22;;;;;;;22.13;55.36;100103.47;6254092;28;20044;-88
2022/07/08 06:58:32;;;;;;;4.03;1.83;;;;;;;22.22;54.42;100106.97;6257258;28;20241;-81
2022/07/08 07:01:34;;;;;;;3.27;2.00;;;;;;;22.37;53.28;100107.13;6232766;28;20047;-80
2022/07/08 07:04:35;;;;;;;4.82;2.20;;;;;;;22.42;53.24;100110.09;6283457;28;20111;-80
2022/07/08 07:07:38;;;;;;;2.30;1.90;;;;;;;22.56;52.50;100111.25;6222755;28;20476;-87
2022/07/08 07:10:39;;;;;;;6.32;2.30;;;;;;;22.63;52.09;100113.06;6264378;28;20040;-83
2022/07/08 07:13:40;;;;;;;3.07;2.07;;;;;;;22.76;51.67;100107.19;6266966;28;20041;-84
2022/07/08 07:16:41;;;;;;;7.20;2.20;;;;;;;22.97;52.34;100108.44;6250921;28;20094;-83
2022/07/08 07:19:44;;;;;;;3.23;2.30;;;;;;;23.17;52.40;100106.25;6250742;28;20066;-83
2022/07/08 07:22:47;;;;;;;7.80;2.33;;;;;;;23.27;49.70;100110.34;6282733;28;20049;-83
2022/07/08 07:25:48;;;;;;;3.47;1.98;;;;;;;23.59;52.45;100116.44;6250646;28;20044;-81
2022/07/08 07:28:51;;;;;;;6.17;2.07;;;;;;;23.65;49.79;100117.59;6233988;28;20102;-81
2022/07/08 07:31:52;;;;;;;7.97;2.25;;;;;;;23.42;48.28;100112.25;6229489;28;20376;-87
2022/07/08 07:34:53;;;;;;;5.87;2.20;;;;;;;23.65;49.16;100123.72;6255236;28;20137;-78
2022/07/08 07:37:54;;;;;;;11.03;2.33;;;;;;;23.83;47.52;100125.31;6255878;28;20045;-86
2022/07/08 07:40:55;;;;;;;7.87;2.40;;;;;;;23.67;49.14;100132.38;6276362;28;20041;-85
2022/07/08 07:43:55;;;;;;;5.10;2.50;;;;;;;23.79;50.19;100130.16;6239835;28;20037;-79
2022/07/08 07:46:56;;;;;;;9.53;2.10;;;;;;;24.00;47.47;100129.50;6239680;28;20037;-78
2022/07/08 07:49:57;;;;;;;5.60;2.03;;;;;;;24.07;46.77;100130.47;6256855;28;20130;-83
2022/07/08 07:53:00;;;;;;;7.05;2.10;;;;;;;24.02;48.19;100130.16;6224902;28;20045;-85
2022/07/08 07:56:03;;;;;;;8.77;2.65;;;;;;;24.27;48.00;100135.28;6241187;28;20069;-85
2022/07/08 07:59:04;;;;;;;5.32;2.10;;;;;;;24.46;46.24;100132.09;6240616;28;20061;-85
2022/07/08 08:02:05;;;;;;;10.80;2.30;;;;;;;24.67;45.87;100133.25;6240927;28;20407;-85
2022/07/08 08:05:07;;;;;;;5.00;2.25;;;;;;;24.82;45.01;100127.91;6239921;28;20045;-86
2022/07/08 08:08:13;;;;;;;;;;;;;;;24.96;45.59;100120.88;6240950;28;20041;-79
2022/07/08 08:11:17;;;;;;;10.20;2.58;;;;;;;25.17;45.44;100131.63;6256795;28;20022;-85
2022/07/08 08:14:20;;;;;;;9.30;2.40;;;;;;;25.43;43.26;100119.63;6224033;28;20041;-79
2022/07/08 08:17:21;;;;;;;7.90;2.45;;;;;;;25.43;45.98;100124.97;6239558;28;20119;-79
2022/07/08 08:20:27;;;;;;;9.63;2.35;;;;;;;25.41;47.17;100117.16;6255907;28;20066;-79
2022/07/08 08:23:31;;;;;;;6.82;2.30;;;;;;;25.51;46.62;100114.16;6273805;28;20051;-85
2022/07/08 08:26:32;;;;;;;4.22;1.80;;;;;;;25.74;43.34;100117.50;6256547;28;20037;-84
2022/07/08 08:29:33;;;;;;;8.07;2.17;;;;;;;25.93;43.97;100110.69;6274223;28;20555;-83
2022/07/08 08:32:36;;;;;;;11.10;2.00;;;;;;;26.04;42.63;100114.69;6256332;28;20054;-85
2022/07/08 08:35:37;;;;;;;5.97;2.22;;;;;;;25.91;44.75;100110.06;6274240;28;20052;-81
2022/07/08 08:38:39;;;;;;;6.13;2.13;;;;;;;26.03;42.73;100117.56;6222930;28;20095;-81
2022/07/08 08:41:41;;;;;;;3.63;2.00;;;;;;;25.62;42.90;100118.19;6273959;28;20041;-86
2022/07/08 08:44:44;;;;;;;6.13;1.90;;;;;;;25.67;41.77;100118.44;6255452;28;20475;-85
2022/07/08 08:47:48;;;;;;;4.70;1.98;;;;;;;24.90;43.66;100123.28;6273581;28;20072;-79
2022/07/08 08:50:56;;;;;;;2.72;2.00;;;;;;;24.89;45.23;100126.13;6272946;28;20090;-79
2022/07/08 08:53:58;;;;;;;7.90;2.25;;;;;;;24.89;44.71;100127.00;6256367;28;20394;-85
2022/07/08 08:57:00;;;;;;;8.82;2.60;;;;;;;24.82;44.38;100126.06;6275276;28;20103;-79
2022/07/08 09:00:02;;;;;;;7.10;2.40;;;;;;;24.73;45.44;100125.34;6239083;28;20500;-85
2022/07/08 09:03:04;;;;;;;4.63;2.10;;;;;;;24.82;44.29;100117.22;6256450;28;20048;-83
2022/07/08 09:06:06;;;;;;;5.95;2.60;;;;;;;25.26;44.34;100122.53;6274039;28;20048;-83
2022/07/08 09:09:07;;;;;;;2.92;1.92;;;;;;;25.29;44.03;100127.50;6273443;28;20403;-86
2022/07/08 09:12:19;;;;;;;3.80;2.00;;;;;;;25.04;44.16;100126.97;6272802;28;20044;-84
2022/07/08 09:15:29;;;;;;;4.15;1.65;;;;;;;24.77;42.65;100127.63;6238655;28;20164;-77
2022/07/08 09:18:38;;;;;;;5.18;1.90;;;;;;;24.92;42.98;100133.78;6272218;28;20049;-78
2022/07/08 09:21:43;;;;;;;3.63;1.90;;;;;;;25.07;41.81;100118.56;6272250;28;20037;-77
2022/07/08 09:24:46;;;;;;;3.28;2.05;;;;;;;25.31;43.05;100117.47;6254797;28;20037;-83
2022/07/08 09:27:49;;;;;;;5.40;2.20;;;;;;;25.80;40.91;100131.94;6272797;28;20044;-86
2022/07/08 09:30:55;;;;;;;5.55;2.60;;;;;;;25.49;41.01;100114.38;6239578;28;20051;-85
2022/07/08 09:33:56;;;;;;;2.10;1.90;;;;;;;25.88;40.92;100125.63;6255102;28;20053;-79
2022/07/08 09:36:57;;;;;;;7.50;2.00;;;;;;;26.39;40.63;100124.63;6237844;28;20110;-81
2022/07/08 09:39:59;;;;;;;9.38;2.05;;;;;;;26.48;39.61;100121.63;6255461;28;20044;-86
2022/07/08 09:43:12;;;;;;;8.77;2.20;;;;;;;26.46;39.15;100125.47;6255608;28;20049;-84
2022/07/08 09:46:13;;;;;;;3.38;1.70;;;;;;;26.14;38.40;100120.53;6255266;28;20044;-84
2022/07/08 09:49:27;;;;;;;4.38;1.98;;;;;;;26.50;38.22;100127.59;6254768;28;20577;-80
2022/07/08 09:52:28;;;;;;;3.95;2.00;;;;;;;26.92;38.46;100115.09;6272612;28;20076;-87
2022/07/08 09:55:32;;;;;;;8.20;2.10;;;;;;;26.94;38.03;100115.72;6238797;28;20041;-85
2022/07/08 09:58:34;;;;;;;13.93;1.98;;;;;;;26.87;39.83;100111.34;6254868;28;20298;-82
2022/07/08 10:01:35;;;;;;;5.20;2.10;;;;;;;26.47;39.39;100111.91;6272416;28;20073;-86
2022/07/08 10:04:36;;;;;;;2.17;1.65;;;;;;;26.03;38.83;100115.72;6255020;28;20119;-85
2022/07/08 10:07:37;;;;;;;2.25;1.95;;;;;;;26.39;39.54;100114.75;6238442;28;20506;-86
2022/07/08 10:10:43;;;;;;;10.45;1.95;;;;;;;26.53;39.36;100121.84;6221829;28;20044;-86
2022/07/08 10:13:45;;;;;;;3.58;2.17;;;;;;;26.27;40.40;100118.97;6254820;28;20041;-84
2022/07/08 10:16:46;;;;;;;5.88;2.13;;;;;;;26.25;39.67;100116.53;6272681;28;20052;-85
2022/07/08 10:19:48;;;;;;;5.82;1.67;;;;;;;26.02;39.63;100110.56;6253753;28;20120;-79
2022/07/08 10:22:54;;;;;;;3.95;2.17;;;;;;;26.37;39.19;100115.97;6258398;28;20040;-81
2022/07/08 10:25:58;;;;;;;2.75;1.67;;;;;;;26.00;37.84;100110.75;6277636;28;20507;-85
2022/07/08 10:29:20;;;;;;;4.63;1.77;;;;;;;25.61;39.37;100113.84;6276542;28;20438;-78
2022/07/08 10:32:27;;;;;;;4.82;2.15;;;;;;;25.65;38.77;100115.13;6257786;28;20048;-77
2022/07/08 10:35:28;;;;;;;6.70;1.90;;;;;;;25.68;39.14;100117.44;6241842;28;20427;-79
2022/07/08 10:38:43;;;;;;;4.72;1.92;;;;;;;25.60;39.22;100113.03;6242777;28;20037;-86
2022/07/08 10:42:02;;;;;;;6.13;2.10;;;;;;;26.24;39.47;100116.72;6258848;28;20259;-87
2022/07/08 10:45:05;;;;;;;6.20;2.20;;;;;;;25.96;39.86;100122.84;6276234;28;20411;-77
2022/07/08 10:48:07;;;;;;;6.70;2.15;;;;;;;25.92;40.36;100124.25;6275859;28;20037;-78
2022/07/08 10:51:26;;;;;;;5.43;2.33;;;;;;;26.04;39.54;100120.03;6259739;28;20048;-78
2022/07/08 10:54:32;;;;;;;2.45;1.95;;;;;;;25.99;39.73;100116.31;6258794;28;20098;-86
2022/07/08 10:57:35;;;;;;;4.32;2.30;;;;;;;25.78;39.71;100112.59;6242222;28;20415;-78
2022/07/08 11:00:39;;;;;;;2.10;1.90;;;;;;;25.69;39.93;100114.56;6275461;28;20053;-86
2022/07/08 11:03:43;;;;;;;14.38;2.30;;;;;;;25.81;40.40;100114.88;6259083;28;20036;-85
2022/07/08 11:06:43;;;;;;;3.15;2.22;;;;;;;25.93;39.87;100117.91;6225705;28;20223;-86
2022/07/08 11:10:05;;;;;;;4.60;2.10;;;;;;;25.92;39.47;100119.75;6242146;28;20060;-79
2022/07/08 11:13:06;;;;;;;3.72;2.00;;;;;;;26.03;38.07;100112.22;6275321;28;20045;-79
2022/07/08 11:16:09;;;;;;;6.22;2.03;;;;;;;26.18;36.99;100112.13;6275071;28;20069;-78
2022/07/08 11:19:15;;;;;;;3.38;1.90;;;;;;;26.12;35.45;100119.06;6258381;28;20040;-78
2022/07/08 11:22:16;;;;;;;2.95;1.73;;;;;;;26.11;35.66;100107.56;6224846;28;20411;-83
2022/07/08 11:25:17;;;;;;;3.42;1.65;;;;;;;26.22;35.91;100105.38;6275369;28;20411;-78
2022/07/08 11:28:21;;;;;;;2.15;1.73;;;;;;;26.27;35.74;100110.97;6240842;28;20036;-78
2022/07/08 11:31:32;;;;;;;11.13;2.25;;;;;;;26.24;36.32;100106.00;6241252;28;20036;-86
2022/07/08 11:34:33;;;;;;;14.65;2.22;;;;;;;26.24;36.41;100112.19;6240223;28;20056;-77
2022/07/08 11:37:41;;;;;;;3.22;1.85;;;;;;;26.40;36.64;100100.38;6256879;28;20048;-78
2022/07/08 11:40:42;;;;;;;8.63;2.15;;;;;;;26.44;37.96;100101.63;6257016;28;20041;-86
2022/07/08 11:43:43;;;;;;;5.63;2.20;;;;;;;26.51;37.87;100099.81;6275282;28;20041;-87
2022/07/08 11:46:49;;;;;;;2.70;1.90;;;;;;;26.53;37.01;100103.09;6240879;28;20480;-85
2022/07/08 11:49:50;;;;;;;7.97;2.17;;;;;;;26.55;36.55;100105.59;6257035;28;20041;-77
2022/07/08 11:52:51;;;;;;;3.33;1.90;;;;;;;26.72;35.61;100093.56;6223564;28;20056;-84
2022/07/08 11:55:52;;;;;;;4.07;1.90;;;;;;;26.69;37.00;100098.50;6240999;28;20041;-86
2022/07/08 11:58:54;;;;;;;6.05;2.20;;;;;;;26.66;36.96;100096.22;6207631;28;20495;-85
2022/07/08 12:01:56;;;;;;;11.77;2.03;;;;;;;26.72;37.42;100098.09;6240611;28;20041;-87
2022/07/08 12:04:59;;;;;;;9.45;2.00;;;;;;;26.57;36.03;100100.06;6256538;28;20111;-85
2022/07/08 12:08:09;;;;;;;6.43;2.00;;;;;;;26.43;36.30;100089.25;6208167;28;20045;-86
2022/07/08 12:11:21;;;;;;;4.13;1.95;;;;;;;26.25;37.51;100100.47;6256613;28;20414;-84
2022/07/08 12:14:24;;;;;;;6.85;1.85;;;;;;;26.23;36.52;100096.31;6274194;28;20044;-85
2022/07/08 12:17:27;;;;;;;4.10;2.03;;;;;;;26.42;36.89;100086.78;6255804;28;20045;-78
2022/07/08 12:20:41;;;;;;;4.97;2.15;;;;;;;26.52;36.45;100108.66;6239772;28;20055;-77
2022/07/08 12:23:54;;;;;;;3.85;2.00;;;;;;;26.50;35.34;100098.16;6273816;28;20070;-85
2022/07/08 12:26:59;;;;;;;3.67;1.88;;;;;;;26.29;35.89;100096.38;6256521;28;20041;-84
2022/07/08 12:30:04;;;;;;;2.03;1.83;;;;;;;26.26;34.99;100102.13;6256298;28;20044;-79
2022/07/08 12:33:05;;;;;;;5.72;1.70;;;;;;;26.42;34.67;100095.66;6255818;28;20055;-85
2022/07/08 12:36:25;;;;;;;4.45;1.80;;;;;;;26.53;35.23;100096.94;6239560;28;20110;-85
2022/07/08 12:39:29;;;;;;;7.35;2.00;;;;;;;26.42;38.62;100101.00;6240077;28;20460;-79
2022/07/08 12:42:33;;;;;;;13.80;2.00;;;;;;;26.11;38.91;100096.06;6225275;28;20041;-76
2022/07/08 12:45:35;;;;;;;8.60;2.30;;;;;;;26.01;39.85;100092.88;6239135;28;20037;-77
2022/07/08 12:48:36;;;;;;;;;;;;;;;25.90;40.07;100089.72;6256308;28;20533;-87
2022/07/08 12:51:36;;;;;;;5.00;1.90;;;;;;;26.07;39.94;100081.41;6255592;28;19920;-87
2022/07/08 12:54:38;;;;;;;7.70;2.17;;;;;;;26.03;39.91;100078.31;6239181;28;20044;-78
2022/07/08 12:57:40;;;;;;;9.20;2.63;;;;;;;25.74;40.08;100081.94;6272676;28;20066;-78
2022/07/08 13:00:41;;;;;;;6.53;2.17;;;;;;;26.08;40.07;100083.06;6272808;28;20049;-78
2022/07/08 13:03:44;;;;;;;9.15;2.08;;;;;;;26.05;40.34;100088.81;6238615;28;20091;-78
2022/07/08 13:06:45;;;;;;;5.60;1.98;;;;;;;26.24;41.26;100081.94;6222768;28;20502;-79
2022/07/08 13:09:46;;;;;;;19.48;2.63;;;;;;;26.08;40.36;100077.72;6254586;28;20495;-87
2022/07/08 13:12:49;;;;;;;10.43;2.07;;;;;;;26.07;40.94;100079.56;6238715;28;20044;-86
2022/07/08 13:15:50;;;;;;;6.63;2.50;;;;;;;26.16;39.87;100085.59;6238978;28;20360;-89
2022/07/08 13:18:54;;;;;;;13.50;2.22;;;;;;;26.08;40.50;100088.41;6238323;28;20047;-78
2022/07/08 13:21:56;;;;;;;10.10;2.30;;;;;;;26.41;40.07;100069.91;6238008;28;20068;-78
2022/07/08 13:24:57;;;;;;;6.78;2.20;;;;;;;25.88;40.15;100093.53;6272217;28;20041;-78
2022/07/08 13:27:58;;;;;;;3.60;1.90;;;;;;;26.06;40.74;100072.56;6254381;28;20045;-78
2022/07/08 13:30:59;;;;;;;7.55;2.55;;;;;;;26.06;40.22;100088.59;6221704;28;20128;-77
2022/07/08 13:34:00;;;;;;;7.10;2.10;;;;;;;25.89;41.14;100080.03;6254140;28;20479;-78
2022/07/08 13:37:02;;;;;;;6.55;2.20;;;;;;;26.10;40.23;100076.47;6237693;28;20055;-78
2022/07/08 13:40:04;;;;;;;6.20;2.13;;;;;;;26.11;40.68;100070.13;6228306;28;20092;-84
2022/07/08 13:43:04;;;;;;;6.15;1.92;;;;;;;25.94;40.40;100071.44;6246098;28;20495;-83
2022/07/08 13:46:06;;;;;;;6.67;2.00;;;;;;;26.07;40.04;100074.22;6251389;28;20094;-86
2022/07/08 13:49:07;;;;;;;6.05;2.33;;;;;;;26.42;38.91;100074.25;6255676;28;20768;-87
2022/07/08 13:52:08;;;;;;;6.22;2.38;;;;;;;26.11;39.45;100072.00;6237890;28;20052;-84
2022/07/08 13:55:09;;;;;;;8.80;2.00;;;;;;;26.31;38.87;100072.09;6253974;28;20536;-82
2022/07/08 13:58:10;;;;;;;5.30;2.00;;;;;;;26.26;39.04;100074.56;6237210;28;20329;-84
2022/07/08 14:01:11;;;;;;;7.57;1.98;;;;;;;26.07;37.96;100074.22;6226561;28;20048;-84
2022/07/08 14:04:12;;;;;;;4.43;1.90;;;;;;;25.96;37.55;100071.25;6253759;28;20235;-87
2022/07/08 14:07:13;;;;;;;3.90;2.10;;;;;;;26.28;38.29;100067.16;6274178;28;20497;-80
2022/07/08 14:10:14;;;;;;;7.22;2.65;;;;;;;26.02;37.36;100065.94;6215757;28;20088;-86
2022/07/08 14:13:15;;;;;;;5.07;1.83;;;;;;;25.92;37.48;100066.28;6246817;28;20046;-84
2022/07/08 14:16:16;;;;;;;6.03;1.90;;;;;;;25.96;37.17;100068.56;6212872;28;20037;-78